Time,TemperatureF,DewpointF,PressureIn,WindDirection,WindDirectionDegrees,WindSpeedMPH,WindSpeedGustMPH,Humidity,HourlyPrecipIn,Conditions,Clouds,dailyrainin,SolarRadiationWatts/m^2,SoftwareType,DateUTC
2013-08-16 00:03:00,57.0,52.0,-100.00,NNW,330,1.0,4.0,82,0.00,,,0.00,0.000000,,2013-08-16 04:03:00,
2013-08-16 00:13:00,57.0,52.0,-100.00,NNW,330,1.0,4.0,82,0.00,,,0.00,0.000000,,2013-08-16 04:13:00,
2013-08-16 00:43:00,54.0,51.0,-100.00,NW,324,1.0,1.0,90,0.00,,,0.00,0.000000,,2013-08-16 04:43:00,
2013-08-16 00:54:00,54.0,51.0,-100.00,NW,324,1.0,1.0,90,0.00,,,0.00,0.000000,,2013-08-16 04:54:00,
2013-08-16 01:02:00,54.0,51.0,-100.00,NW,324,1.0,1.0,90,0.00,,,0.00,0.000000,,2013-08-16 05:02:00,
2013-08-16 01:12:00,54.0,51.0,-100.00,NW,324,1.0,1.0,90,0.00,,,0.00,0.000000,,2013-08-16 05:12:00,
2013-08-16 03:00:00,53.0,52.0,-100.00,WNW,288,1.0,2.0,95,0.00,,,0.00,0.000000,,2013-08-16 07:00:00,
2013-08-16 03:11:00,53.0,52.0,-100.00,WNW,288,1.0,2.0,95,0.00,,,0.00,0.000000,,2013-08-16 07:11:00,
2013-08-16 03:42:00,52.0,50.0,-100.00,North,350,0.0,2.0,94,0.00,,,0.00,0.000000,,2013-08-16 07:42:00,
2013-08-16 03:52:00,52.0,50.0,-100.00,North,350,0.0,2.0,94,0.00,,,0.00,0.000000,,2013-08-16 07:52:00,
2013-08-16 04:02:00,52.0,50.0,-100.00,North,350,0.0,2.0,94,0.00,,,0.00,0.000000,,2013-08-16 08:02:00,
2013-08-16 04:11:00,52.0,50.0,-100.00,North,350,0.0,2.0,94,0.00,,,0.00,0.000000,,2013-08-16 08:11:00,
2013-08-16 04:42:00,52.0,50.0,-100.00,North,355,1.0,2.0,94,0.00,,,0.00,0.000000,,2013-08-16 08:42:00,
2013-08-16 04:52:00,52.0,50.0,-100.00,North,355,1.0,2.0,94,0.00,,,0.00,0.000000,,2013-08-16 08:52:00,
2013-08-16 05:01:00,52.0,50.0,-100.00,North,355,1.0,2.0,94,0.00,,,0.00,0.000000,,2013-08-16 09:01:00,
2013-08-16 05:11:00,52.0,50.0,-100.00,North,355,1.0,2.0,94,0.00,,,0.00,0.000000,,2013-08-16 09:11:00,
2013-08-16 05:42:00,52.0,50.0,-100.00,NE,45,0.0,2.0,94,0.00,,,0.00,0.000000,,2013-08-16 09:42:00,
2013-08-16 05:53:00,52.0,50.0,-100.00,NE,45,0.0,2.0,94,0.00,,,0.00,0.000000,,2013-08-16 09:53:00,
2013-08-16 06:03:00,52.0,50.0,-100.00,NE,45,0.0,2.0,94,0.00,,,0.00,0.000000,,2013-08-16 10:03:00,
2013-08-16 06:13:00,52.0,50.0,-100.00,NE,45,0.0,2.0,94,0.00,,,0.00,0.000000,,2013-08-16 10:13:00,
2013-08-16 06:42:00,51.0,50.0,-100.00,NE,50,0.0,2.0,96,0.00,,,0.00,0.000000,,2013-08-16 10:42:00,
2013-08-16 06:53:00,51.0,50.0,-100.00,NE,50,0.0,2.0,96,0.00,,,0.00,0.000000,,2013-08-16 10:53:00,
2013-08-16 07:02:00,51.0,50.0,-100.00,NE,50,0.0,2.0,96,0.00,,,0.00,0.000000,,2013-08-16 11:02:00,
2013-08-16 07:12:00,51.0,50.0,-100.00,NE,50,0.0,2.0,96,0.00,,,0.00,0.000000,,2013-08-16 11:12:00,
2013-08-16 07:42:00,52.0,50.0,-100.00,NE,40,1.0,3.0,94,0.00,,,0.00,7.000000,,2013-08-16 11:42:00,
2013-08-16 07:52:00,52.0,50.0,-100.00,NE,40,1.0,3.0,94,0.00,,,0.00,7.000000,,2013-08-16 11:52:00,
2013-08-16 08:02:00,52.0,50.0,-100.00,NE,40,1.0,3.0,94,0.00,,,0.00,7.000000,,2013-08-16 12:02:00,
2013-08-16 08:12:00,52.0,50.0,-100.00,NE,40,1.0,3.0,94,0.00,,,0.00,7.000000,,2013-08-16 12:12:00,
2013-08-16 08:42:00,55.0,53.0,-100.00,SSE,151,1.0,2.0,93,0.00,,,0.00,48.000000,,2013-08-16 12:42:00,
2013-08-16 08:52:00,55.0,53.0,-100.00,SSE,151,1.0,2.0,93,0.00,,,0.00,48.000000,,2013-08-16 12:52:00,
2013-08-16 09:02:00,55.0,53.0,-100.00,SSE,151,1.0,2.0,93,0.00,,,0.00,48.000000,,2013-08-16 13:02:00,
2013-08-16 09:11:00,55.0,53.0,-100.00,SSE,151,1.0,2.0,93,0.00,,,0.00,48.000000,,2013-08-16 13:11:00,
2013-08-16 09:42:00,62.0,56.0,-100.00,SE,143,2.0,3.0,80,0.00,,,0.00,282.000000,,2013-08-16 13:42:00,
2013-08-16 09:53:00,62.0,56.0,-100.00,SE,143,2.0,3.0,80,0.00,,,0.00,282.000000,,2013-08-16 13:53:00,
2013-08-16 10:02:00,62.0,56.0,-100.00,SE,143,2.0,3.0,80,0.00,,,0.00,282.000000,,2013-08-16 14:02:00,
2013-08-16 10:11:00,62.0,56.0,-100.00,SE,143,2.0,3.0,80,0.00,,,0.00,282.000000,,2013-08-16 14:11:00,
2013-08-16 10:42:00,66.0,57.0,-100.00,ESE,108,2.0,6.0,72,0.00,,,0.00,444.000000,,2013-08-16 14:42:00,
2013-08-16 10:52:00,66.0,57.0,-100.00,ESE,108,2.0,6.0,72,0.00,,,0.00,444.000000,,2013-08-16 14:52:00,
2013-08-16 11:01:00,66.0,57.0,-100.00,ESE,108,2.0,6.0,72,0.00,,,0.00,444.000000,,2013-08-16 15:01:00,
2013-08-16 11:12:00,66.0,57.0,-100.00,ESE,108,2.0,6.0,72,0.00,,,0.00,444.000000,,2013-08-16 15:12:00,
2013-08-16 11:43:00,68.0,56.0,-100.00,SE,145,2.0,6.0,65,0.00,,,0.00,535.000000,,2013-08-16 15:43:00,
2013-08-16 11:56:00,68.0,56.0,-100.00,SE,145,2.0,6.0,65,0.00,,,0.00,535.000000,,2013-08-16 15:56:00,
2013-08-16 12:05:00,68.0,56.0,-100.00,SE,145,2.0,6.0,65,0.00,,,0.00,535.000000,,2013-08-16 16:05:00,
2013-08-16 12:13:00,68.0,56.0,-100.00,SE,145,2.0,6.0,65,0.00,,,0.00,535.000000,,2013-08-16 16:13:00,
2013-08-16 12:44:00,70.0,56.0,-100.00,ENE,74,3.0,6.0,62,0.00,,,0.00,728.000000,,2013-08-16 16:44:00,
2013-08-16 12:57:00,70.0,56.0,-100.00,ENE,74,3.0,6.0,62,0.00,,,0.00,728.000000,,2013-08-16 16:57:00,
2013-08-16 13:03:00,70.0,56.0,-100.00,ENE,74,3.0,6.0,62,0.00,,,0.00,728.000000,,2013-08-16 17:03:00,
2013-08-16 13:13:00,70.0,56.0,-100.00,ENE,74,3.0,6.0,62,0.00,,,0.00,728.000000,,2013-08-16 17:13:00,
2013-08-16 13:47:00,72.0,55.0,-100.00,East,79,3.0,6.0,56,0.00,,,0.00,788.000000,,2013-08-16 17:47:00,
2013-08-16 14:00:00,72.0,55.0,-100.00,East,79,3.0,6.0,56,0.00,,,0.00,788.000000,,2013-08-16 18:00:00,
2013-08-16 14:06:00,72.0,55.0,-100.00,East,79,3.0,6.0,56,0.00,,,0.00,788.000000,,2013-08-16 18:06:00,
2013-08-16 14:15:00,72.0,55.0,-100.00,East,79,3.0,6.0,56,0.00,,,0.00,788.000000,,2013-08-16 18:15:00,
2013-08-16 14:50:00,-999.0,-99.9,-100.00,NE,49,3.0,9.0,55,0.00,,,0.00,617.000000,,2013-08-16 18:50:00,
2013-08-16 15:03:00,73.0,56.0,-100.00,NE,49,3.0,9.0,55,0.00,,,0.00,617.000000,,2013-08-16 19:03:00,
2013-08-16 15:14:00,73.0,56.0,-100.00,NE,49,3.0,9.0,55,0.00,,,0.00,617.000000,,2013-08-16 19:14:00,
2013-08-16 15:46:00,74.0,55.0,-100.00,NE,49,2.0,7.0,51,0.00,,,0.00,663.000000,,2013-08-16 19:46:00,
2013-08-16 15:55:00,74.0,55.0,-100.00,NE,49,2.0,7.0,51,0.00,,,0.00,663.000000,,2013-08-16 19:55:00,
2013-08-16 16:02:00,74.0,55.0,-100.00,NE,49,2.0,7.0,51,0.00,,,0.00,663.000000,,2013-08-16 20:02:00,
2013-08-16 16:11:00,74.0,55.0,-100.00,NE,49,2.0,7.0,51,0.00,,,0.00,663.000000,,2013-08-16 20:11:00,
2013-08-16 16:44:00,75.0,55.0,-100.00,East,97,2.0,5.0,50,0.00,,,0.00,539.000000,,2013-08-16 20:44:00,
2013-08-16 16:52:00,75.0,55.0,-100.00,East,97,2.0,5.0,50,0.00,,,0.00,539.000000,,2013-08-16 20:52:00,
2013-08-16 17:01:00,75.0,55.0,-100.00,East,97,2.0,5.0,50,0.00,,,0.00,539.000000,,2013-08-16 21:01:00,
2013-08-16 17:11:00,75.0,55.0,-100.00,East,97,2.0,5.0,50,0.00,,,0.00,539.000000,,2013-08-16 21:11:00,
2013-08-16 17:40:00,-999.0,-99.9,-100.00,East,94,2.0,6.0,-999,0.00,,,0.00,417.000000,,2013-08-16 21:40:00,
2013-08-16 17:54:00,76.0,55.0,-100.00,East,94,2.0,6.0,49,0.00,,,0.00,417.000000,,2013-08-16 21:54:00,
2013-08-16 18:07:00,76.0,55.0,-100.00,East,94,2.0,6.0,49,0.00,,,0.00,417.000000,,2013-08-16 22:07:00,
2013-08-16 18:13:00,76.0,55.0,-100.00,East,94,2.0,6.0,49,0.00,,,0.00,417.000000,,2013-08-16 22:13:00,
2013-08-16 18:43:00,75.0,54.0,-100.00,East,96,1.0,4.0,48,0.00,,,0.00,387.000000,,2013-08-16 22:43:00,
2013-08-16 18:52:00,75.0,54.0,-100.00,East,96,1.0,4.0,48,0.00,,,0.00,387.000000,,2013-08-16 22:52:00,
2013-08-16 19:09:00,75.0,54.0,-100.00,East,96,1.0,4.0,48,0.00,,,0.00,387.000000,,2013-08-16 23:09:00,
2013-08-16 19:42:00,72.0,54.0,-100.00,ESE,106,1.0,4.0,54,0.00,,,0.00,205.000000,,2013-08-16 23:42:00,
2013-08-16 19:52:00,72.0,54.0,-100.00,ESE,106,1.0,4.0,54,0.00,,,0.00,205.000000,,2013-08-16 23:52:00,
2013-08-16 20:02:00,72.0,54.0,-100.00,ESE,106,1.0,4.0,54,0.00,,,0.00,205.000000,,2013-08-17 00:02:00,
2013-08-16 20:12:00,72.0,54.0,-100.00,ESE,106,1.0,4.0,54,0.00,,,0.00,205.000000,,2013-08-17 00:12:00,
2013-08-16 20:42:00,64.0,55.0,-100.00,SE,141,2.0,4.0,72,0.00,,,0.00,24.000000,,2013-08-17 00:42:00,
2013-08-16 20:52:00,64.0,55.0,-100.00,SE,141,2.0,4.0,72,0.00,,,0.00,24.000000,,2013-08-17 00:52:00,
2013-08-16 21:01:00,64.0,55.0,-100.00,SE,141,2.0,4.0,72,0.00,,,0.00,24.000000,,2013-08-17 01:01:00,
2013-08-16 21:11:00,64.0,55.0,-100.00,SE,141,2.0,4.0,72,0.00,,,0.00,24.000000,,2013-08-17 01:11:00,
2013-08-16 21:42:00,62.0,55.0,-100.00,SSE,152,3.0,4.0,79,0.00,,,0.00,0.000000,,2013-08-17 01:42:00,
2013-08-16 21:52:00,62.0,55.0,-100.00,SSE,152,3.0,4.0,79,0.00,,,0.00,0.000000,,2013-08-17 01:52:00,
2013-08-16 22:02:00,62.0,55.0,-100.00,SSE,152,3.0,4.0,79,0.00,,,0.00,0.000000,,2013-08-17 02:02:00,
2013-08-16 22:11:00,62.0,55.0,-100.00,SSE,152,3.0,4.0,79,0.00,,,0.00,0.000000,,2013-08-17 02:11:00,
2013-08-16 22:42:00,61.0,53.0,-100.00,SSE,151,3.0,5.0,76,0.00,,,0.00,0.000000,,2013-08-17 02:42:00,
2013-08-16 22:52:00,61.0,53.0,-100.00,SSE,151,3.0,5.0,76,0.00,,,0.00,0.000000,,2013-08-17 02:52:00,
2013-08-16 23:02:00,61.0,53.0,-100.00,SSE,151,3.0,5.0,76,0.00,,,0.00,0.000000,,2013-08-17 03:02:00,
2013-08-16 23:11:00,61.0,53.0,-100.00,SSE,151,3.0,5.0,76,0.00,,,0.00,0.000000,,2013-08-17 03:11:00,
2013-08-16 23:43:00,58.0,53.0,-100.00,SE,130,2.0,5.0,83,0.00,,,0.00,0.000000,,2013-08-17 03:43:00,
2013-08-16 23:53:00,58.0,53.0,-100.00,SE,130,2.0,5.0,83,0.00,,,0.00,0.000000,,2013-08-17 03:53:00,